Time;durP1;ratioP1;P1;durP2;ratioP2;P2;SDS_P1;SDS_P2;PMS_P1;PMS_P2;Temp;Humidity;BMP_temperature;BMP_pressure;BME280_temperature;BME280_humidity;BME280_pressure;Samples;Min_cycle;Max_cycle;Signal;HPM_P1;HPM_P2
2023/10/27 05:46:51;;;;;;;9.88;7.13;;;;;;;;;;10641700;27;20423;-86
2023/10/27 05:52:02;;;;;;;9.65;7.20;;;;;;;;;;10630845;28;20019;-86
2023/10/27 06:02:34;;;;;;;9.23;7.32;;;;;;;;;;2536475;22;20048;-84
2023/10/27 06:07:41;;;;;;;5.45;4.30;;;;;;;;;;10590771;28;20074;-84
2023/10/27 06:12:51;;;;;;;7.45;6.03;;;;;;;;;;10596779;28;20058;-83
2023/10/27 06:17:55;;;;;;;8.25;6.60;;;;;;;;;;10617734;28;20073;-84
2023/10/27 06:22:56;;;;;;;6.07;5.38;;;;;;;;;;10589116;28;20114;-84
2023/10/27 06:27:57;;;;;;;10.55;9.25;;;;;;;;;;10579945;28;20127;-84
2023/10/27 06:33:02;;;;;;;8.32;6.80;;;;;;;;;;10580427;28;20032;-84
2023/10/27 06:38:04;;;;;;;4.88;3.92;;;;;;;;;;10583117;28;20050;-84
2023/10/27 06:43:08;;;;;;;9.98;7.30;;;;;;;;;;10589255;28;20036;-84
2023/10/27 06:48:10;;;;;;;8.05;4.78;;;;;;;;;;10606233;28;20066;-85
2023/10/27 06:53:14;;;;;;;6.10;5.22;;;;;;;;;;10607341;28;20035;-84
2023/10/27 06:58:15;;;;;;;5.88;4.40;;;;;;;;;;10593831;28;20035;-83
2023/10/27 07:03:17;;;;;;;6.13;4.00;;;;;;;;;;10588997;28;20116;-83
2023/10/27 07:08:18;;;;;;;5.70;4.43;;;;;;;;;;10562475;28;20044;-82
2023/10/27 07:13:19;;;;;;;6.97;5.55;;;;;;;;;;10560595;28;20024;-83
2023/10/27 07:18:20;;;;;;;11.68;9.15;;;;;;;;;;10567016;28;20032;-83
2023/10/27 07:23:21;;;;;;;8.13;6.10;;;;;;;;;;10567883;28;20043;-81
2023/10/27 07:28:22;;;;;;;8.48;6.30;;;;;;;;;;10568605;28;20073;-82
2023/10/27 07:33:23;;;;;;;13.95;9.50;;;;;;;;;;10568840;28;20043;-81
2023/10/27 07:38:26;;;;;;;7.85;6.60;;;;;;;;;;10564549;28;20028;-83
2023/10/27 07:43:27;;;;;;;10.65;8.27;;;;;;;;;;10564781;28;20056;-83
2023/10/27 07:48:29;;;;;;;8.48;6.63;;;;;;;;;;10561415;28;20043;-83
2023/10/27 07:53:30;;;;;;;7.55;6.20;;;;;;;;;;10561372;28;20032;-83
2023/10/27 07:58:31;;;;;;;7.60;5.38;;;;;;;;;;10563697;28;20036;-83
2023/10/27 08:03:33;;;;;;;12.55;9.02;;;;;;;;;;10563482;28;20039;-83
2023/10/27 08:08:37;;;;;;;9.13;6.43;;;;;;;;;;10570680;28;20027;-85
2023/10/27 08:13:38;;;;;;;17.25;7.50;;;;;;;;;;10581915;28;20056;-83
2023/10/27 08:18:39;;;;;;;6.03;5.10;;;;;;;;;;10558636;28;20039;-83
2023/10/27 08:23:41;;;;;;;10.75;8.20;;;;;;;;;;10559655;28;20067;-84
2023/10/27 08:28:42;;;;;;;5.95;3.97;;;;;;;;;;10561502;28;20110;-83
2023/10/27 08:33:43;;;;;;;7.35;4.60;;;;;;;;;;10558085;28;20046;-82
2023/10/27 08:38:44;;;;;;;8.70;4.80;;;;;;;;;;10557979;28;20067;-83
2023/10/27 08:43:45;;;;;;;8.23;4.90;;;;;;;;;;10558466;28;20085;-84
2023/10/27 08:48:46;;;;;;;6.75;4.35;;;;;;;;;;10558256;28;20078;-83
2023/10/27 08:53:47;;;;;;;6.72;5.20;;;;;;;;;;10558954;28;20043;-83
2023/10/27 08:58:52;;;;;;;9.52;5.35;;;;;;;;;;10564242;28;20178;-84
2023/10/27 09:04:13;;;;;;;7.55;4.80;;;;;;;;;;10576108;28;20453;-82
2023/10/27 09:09:14;;;;;;;6.75;4.80;;;;;;;;;;10585894;28;20051;-82
2023/10/27 09:14:17;;;;;;;8.90;5.38;;;;;;;;;;10580323;28;20040;-81
2023/10/27 09:19:24;;;;;;;7.82;4.47;;;;;;;;;;10567587;28;20032;-82
2023/10/27 09:24:32;;;;;;;6.28;4.25;;;;;;;;;;10549206;28;20048;-82
2023/10/27 09:29:40;;;;;;;8.57;4.65;;;;;;;;;;10551265;28;20111;-83
2023/10/27 09:34:41;;;;;;;8.43;4.22;;;;;;;;;;10553952;28;20032;-83
2023/10/27 09:39:42;;;;;;;6.20;3.55;;;;;;;;;;10557532;28;20032;-83
2023/10/27 09:44:53;;;;;;;6.95;3.63;;;;;;;;;;10553884;28;20055;-83
2023/10/27 09:49:54;;;;;;;;;;;;;;;;;;10557800;28;20032;-84
2023/10/27 09:54:58;;;;;;;7.07;3.67;;;;;;;;;;10558196;28;20006;-83
2023/10/27 10:00:00;;;;;;;6.50;3.40;;;;;;;;;;10558008;28;20032;-82
2023/10/27 10:05:01;;;;;;;6.80;3.20;;;;;;;;;;10551300;28;20381;-83
2023/10/27 10:10:21;;;;;;;5.00;3.28;;;;;;;;;;10557340;28;20024;-82
2023/10/27 10:15:23;;;;;;;5.87;3.57;;;;;;;;;;10577614;28;20032;-82
2023/10/27 10:20:47;;;;;;;7.30;3.45;;;;;;;;;;10564272;28;20075;-83
2023/10/27 10:25:53;;;;;;;5.53;2.80;;;;;;;;;;10560500;28;20032;-82
2023/10/27 10:31:16;;;;;;;4.88;2.47;;;;;;;;;;10567073;28;20036;-82
2023/10/27 10:36:24;;;;;;;4.50;2.65;;;;;;;;;;10566762;28;20032;-83
2023/10/27 10:41:58;;;;;;;4.57;2.30;;;;;;;;;;10586708;28;20047;-84
2023/10/27 10:47:00;;;;;;;7.22;4.22;;;;;;;;;;10572150;28;20115;-84
2023/10/27 10:52:01;;;;;;;7.93;4.28;;;;;;;;;;10561926;28;20032;-83
2023/10/27 10:57:08;;;;;;;6.72;3.92;;;;;;;;;;10562655;28;20040;-84
2023/10/27 11:02:09;;;;;;;6.28;3.65;;;;;;;;;;10563513;28;20155;-84
2023/10/27 11:07:10;;;;;;;6.25;3.50;;;;;;;;;;10567364;28;20070;-82
2023/10/27 11:12:25;;;;;;;6.20;3.47;;;;;;;;;;10564521;28;20392;-83
2023/10/27 11:17:26;;;;;;;8.20;3.92;;;;;;;;;;10570028;28;20043;-83
2023/10/27 11:22:27;;;;;;;11.45;3.75;;;;;;;;;;10586904;28;20047;-83
2023/10/27 11:27:28;;;;;;;6.15;3.67;;;;;;;;;;10589098;28;20020;-83
2023/10/27 11:32:30;;;;;;;5.25;3.05;;;;;;;;;;10586778;28;20020;-84
2023/10/27 11:37:32;;;;;;;6.60;3.38;;;;;;;;;;10585217;28;20051;-84
2023/10/27 11:42:33;;;;;;;4.82;2.83;;;;;;;;;;10584140;28;20020;-84
2023/10/27 11:47:34;;;;;;;4.85;2.80;;;;;;;;;;10578512;28;20036;-85
2023/10/27 11:52:36;;;;;;;5.35;3.30;;;;;;;;;;10571924;28;20036;-85
2023/10/27 11:57:37;;;;;;;3.63;2.50;;;;;;;;;;10588962;22;20040;-82
2023/10/27 12:02:38;;;;;;;4.78;2.70;;;;;;;;;;10454859;28;20049;-82
2023/10/27 12:07:39;;;;;;;3.35;2.50;;;;;;;;;;10458567;28;20061;-82
2023/10/27 12:12:40;;;;;;;4.22;2.83;;;;;;;;;;10458842;28;20457;-82
2023/10/27 12:17:42;;;;;;;5.30;2.88;;;;;;;;;;10454390;28;20060;-83
2023/10/27 12:22:46;;;;;;;4.55;2.70;;;;;;;;;;10449002;28;20404;-82
2023/10/27 12:27:48;;;;;;;4.72;2.95;;;;;;;;;;10467890;28;20092;-81
2023/10/27 12:32:49;;;;;;;3.72;2.88;;;;;;;;;;10480062;28;20103;-83
2023/10/27 12:37:50;;;;;;;4.32;2.50;;;;;;;;;;10472804;28;20055;-83
2023/10/27 12:42:51;;;;;;;4.28;2.90;;;;;;;;;;10475683;28;20124;-84
2023/10/27 12:47:52;;;;;;;4.78;2.75;;;;;;;;;;10446645;28;20488;-83
2023/10/27 12:52:53;;;;;;;4.47;2.45;;;;;;;;;;10447536;28;20029;-84
2023/10/27 12:57:57;;;;;;;3.63;2.72;;;;;;;;;;10447682;28;20140;-84
2023/10/27 13:02:59;;;;;;;3.75;2.70;;;;;;;;;;10448413;28;20044;-84
2023/10/27 13:08:01;;;;;;;5.30;2.58;;;;;;;;;;10447162;28;20056;-82
2023/10/27 13:13:02;;;;;;;3.85;2.15;;;;;;;;;;10446671;28;20058;-82
2023/10/27 13:18:03;;;;;;;3.08;2.03;;;;;;;;;;10445807;28;20029;-81
2023/10/27 13:23:07;;;;;;;3.25;2.17;;;;;;;;;;10446141;28;20412;-82
2023/10/27 13:28:08;;;;;;;3.72;2.25;;;;;;;;;;10446130;28;20048;-82
2023/10/27 13:33:09;;;;;;;2.90;2.05;;;;;;;;;;10445611;28;20041;-81
2023/10/27 13:38:10;;;;;;;2.60;1.73;;;;;;;;;;10444628;28;20597;-82
2023/10/27 13:43:14;;;;;;;3.45;1.90;;;;;;;;;;10461627;28;20041;-83
2023/10/27 13:48:16;;;;;;;2.95;2.00;;;;;;;;;;10447434;28;20029;-81
2023/10/27 13:53:18;;;;;;;3.97;2.42;;;;;;;;;;10450554;28;20103;-81
2023/10/27 13:58:19;;;;;;;3.20;2.40;;;;;;;;;;10465879;28;20036;-84
2023/10/27 14:03:29;;;;;;;3.50;2.30;;;;;;;;;;10447954;28;20559;-85
2023/10/27 14:08:43;;;;;;;3.45;2.75;;;;;;;;;;10476182;28;20029;-85
2023/10/27 14:13:53;;;;;;;4.03;2.78;;;;;;;;;;10457940;28;20033;-85
2023/10/27 14:19:02;;;;;;;4.18;2.60;;;;;;;;;;10456559;28;20036;-85
2023/10/27 14:24:06;;;;;;;4.35;3.40;;;;;;;;;;10461512;28;20437;-85
2023/10/27 14:29:17;;;;;;;3.75;2.75;;;;;;;;;;10464767;28;20052;-86
2023/10/27 14:34:44;;;;;;;4.28;3.40;;;;;;;;;;10478425;28;20044;-85
2023/10/27 14:39:48;;;;;;;3.92;3.08;;;;;;;;;;10469601;28;20086;-86
2023/10/27 14:44:51;;;;;;;8.27;4.70;;;;;;;;;;10474307;28;20401;-85
2023/10/27 14:49:56;;;;;;;4.10;2.60;;;;;;;;;;10473696;28;20037;-85
2023/10/27 15:00:44;;;;;;;4.18;2.60;;;;;;;;;;10474043;28;20045;-86
2023/10/27 15:06:04;;;;;;;5.60;3.05;;;;;;;;;;10456881;28;20084;-85
2023/10/27 15:11:13;;;;;;;4.40;2.40;;;;;;;;;;10471591;28;20485;-85
2023/10/27 15:16:24;;;;;;;3.28;2.53;;;;;;;;;;10471812;28;20064;-85
2023/10/27 15:21:38;;;;;;;5.10;3.63;;;;;;;;;;10469157;28;20151;-86
2023/10/27 15:26:44;;;;;;;4.82;2.75;;;;;;;;;;10482327;28;20112;-85
2023/10/27 15:31:50;;;;;;;4.47;2.67;;;;;;;;;;10483264;28;20068;-85
2023/10/27 15:37:02;;;;;;;4.85;2.30;;;;;;;;;;10490721;28;20037;-84
2023/10/27 15:42:03;;;;;;;3.25;2.30;;;;;;;;;;10454789;28;20029;-86
2023/10/27 15:47:17;;;;;;;3.75;2.40;;;;;;;;;;10488251;28;20037;-85
2023/10/27 15:53:02;;;;;;;3.72;2.00;;;;;;;;;;10496896;28;20053;-85
2023/10/27 15:58:05;;;;;;;3.72;2.10;;;;;;;;;;10463810;28;20093;-85
2023/10/27 16:03:16;;;;;;;3.35;1.45;;;;;;;;;;10468010;28;20048;-85
2023/10/27 16:08:22;;;;;;;3.83;1.95;;;;;;;;;;10450278;28;20072;-85
2023/10/27 16:13:24;;;;;;;3.50;1.90;;;;;;;;;;10446456;28;20045;-84
2023/10/27 16:18:25;;;;;;;4.18;2.13;;;;;;;;;;10445867;28;20033;-85
2023/10/27 16:23:26;;;;;;;4.90;2.20;;;;;;;;;;10445197;28;20048;-81
2023/10/27 16:28:27;;;;;;;4.80;2.22;;;;;;;;;;10444421;28;20124;-81
2023/10/27 16:33:28;;;;;;;4.53;2.28;;;;;;;;;;10459959;28;20043;-84
2023/10/27 16:43:54;;;;;;;4.28;2.10;;;;;;;;;;10481166;28;20037;-84
2023/10/27 16:49:03;;;;;;;4.63;3.53;;;;;;;;;;10463710;28;20459;-84
2023/10/27 16:54:34;;;;;;;4.32;2.97;;;;;;;;;;10465061;28;20067;-84
2023/10/27 16:59:48;;;;;;;5.50;2.40;;;;;;;;;;10478095;28;20485;-83
2023/10/27 17:05:39;;;;;;;5.15;3.35;;;;;;;;;;10462946;28;20060;-83
2023/10/27 17:10:46;;;;;;;3.90;2.55;;;;;;;;;;10439577;28;20044;-83
2023/10/27 17:21:30;;;;;;;4.55;3.03;;;;;;;;;;10466765;28;20456;-83
2023/10/27 17:26:54;;;;;;;4.95;2.40;;;;;;;;;;10449446;28;20041;-83
2023/10/27 17:31:56;;;;;;;3.33;2.28;;;;;;;;;;10447152;28;20025;-83
2023/10/27 17:37:07;;;;;;;3.80;2.30;;;;;;;;;;10464197;28;20510;-83
2023/10/27 17:42:08;;;;;;;5.53;3.25;;;;;;;;;;10444982;28;20496;-83
2023/10/27 17:47:21;;;;;;;3.85;2.58;;;;;;;;;;10458244;28;20033;-84
2023/10/27 17:52:26;;;;;;;5.93;3.20;;;;;;;;;;10443310;28;20029;-86
2023/10/27 17:57:45;;;;;;;5.22;2.60;;;;;;;;;;10441663;28;20157;-86
2023/10/27 18:02:52;;;;;;;3.00;1.90;;;;;;;;;;10480098;28;20073;-84
2023/10/27 18:08:04;;;;;;;4.32;2.20;;;;;;;;;;10478393;28;20037;-84
2023/10/27 18:13:06;;;;;;;2.63;1.90;;;;;;;;;;10457182;28;20033;-84
2023/10/27 18:18:22;;;;;;;5.37;4.00;;;;;;;;;;10475399;28;20040;-84
2023/10/27 18:23:31;;;;;;;2.50;2.00;;;;;;;;;;10478326;28;20056;-84
2023/10/27 18:28:34;;;;;;;3.83;2.03;;;;;;;;;;10485686;28;20393;-84
2023/10/27 18:33:38;;;;;;;3.50;2.40;;;;;;;;;;10480347;28;20479;-84
2023/10/27 18:38:45;;;;;;;3.42;2.38;;;;;;;;;;10497005;28;20068;-84
2023/10/27 18:44:01;;;;;;;3.65;2.53;;;;;;;;;;10491512;28;20105;-84
2023/10/27 18:49:02;;;;;;;4.65;3.00;;;;;;;;;;10465569;28;20037;-84
2023/10/27 18:54:05;;;;;;;3.45;2.35;;;;;;;;;;10471953;28;20056;-84
2023/10/27 18:59:06;;;;;;;3.75;2.47;;;;;;;;;;10471069;28;20033;-84
2023/10/27 19:04:09;;;;;;;4.38;1.98;;;;;;;;;;10468316;28;20033;-84
2023/10/27 19:09:11;;;;;;;2.25;1.92;;;;;;;;;;10480657;28;20040;-83
